createdAt,value
2018-08-19T00:02:43.004Z,17.60
2018-08-19T00:07:47.087Z,17.50
2018-08-19T00:12:50.147Z,17.50
2018-08-19T00:17:53.406Z,17.50
2018-08-19T00:22:56.534Z,17.40
2018-08-19T00:28:02.136Z,17.40
2018-08-19T00:33:05.350Z,17.40
2018-08-19T00:38:09.989Z,17.30
2018-08-19T00:43:13.872Z,17.30
2018-08-19T00:48:18.414Z,17.30
2018-08-19T00:53:21.555Z,17.20
2018-08-19T00:58:24.728Z,17.20
2018-08-19T01:03:28.068Z,17.10
2018-08-19T01:08:31.414Z,17.10
2018-08-19T01:13:34.631Z,17.10
2018-08-19T01:18:38.026Z,17.00
2018-08-19T01:23:41.168Z,17.00
2018-08-19T01:28:44.440Z,16.90
2018-08-19T01:33:48.451Z,16.80
2018-08-19T01:38:51.696Z,16.80
2018-08-19T01:44:03.190Z,16.80
2018-08-19T01:49:09.271Z,16.70
2018-08-19T01:54:17.968Z,16.70
2018-08-19T01:59:21.112Z,16.60
2018-08-19T02:04:24.199Z,16.60
2018-08-19T02:09:27.368Z,16.60
2018-08-19T02:14:30.475Z,16.60
2018-08-19T02:19:33.689Z,16.50
2018-08-19T02:24:36.813Z,16.50
2018-08-19T02:29:39.974Z,16.40
2018-08-19T02:34:44.908Z,16.40
2018-08-19T02:39:49.214Z,16.40
2018-08-19T02:45:07.597Z,16.40
2018-08-19T02:50:10.737Z,16.30
2018-08-19T02:55:13.836Z,16.40
2018-08-19T03:00:17.956Z,16.30
2018-08-19T03:05:21.148Z,16.20
2018-08-19T03:10:24.387Z,16.10
2018-08-19T03:15:27.669Z,16.20
2018-08-19T03:20:30.772Z,16.10
2018-08-19T03:25:33.881Z,16.00
2018-08-19T03:30:37.574Z,15.90
2018-08-19T03:35:41.089Z,15.90
2018-08-19T03:40:44.146Z,15.80
2018-08-19T03:45:47.251Z,15.90
2018-08-19T03:50:50.314Z,15.90
2018-08-19T03:55:53.427Z,15.80
2018-08-19T04:00:56.565Z,15.80
2018-08-19T04:06:00.551Z,15.80
2018-08-19T04:11:06.742Z,15.80
2018-08-19T04:16:10.976Z,15.90
2018-08-19T04:21:16.028Z,15.90
2018-08-19T04:26:19.209Z,16.00
2018-08-19T04:31:23.592Z,16.10
2018-08-19T04:36:26.673Z,16.30
2018-08-19T04:41:29.750Z,16.50
2018-08-19T04:46:32.824Z,16.60
2018-08-19T04:51:35.940Z,16.60
2018-08-19T04:56:39.057Z,16.70
2018-08-19T05:01:42.202Z,16.90
2018-08-19T05:06:45.373Z,17.20
2018-08-19T05:11:48.440Z,17.40
2018-08-19T05:16:51.645Z,17.60
2018-08-19T05:21:59.028Z,17.90
2018-08-19T05:27:06.619Z,18.10
2018-08-19T05:32:12.146Z,18.30
2018-08-19T05:37:15.261Z,18.60
2018-08-19T05:42:18.609Z,18.80
2018-08-19T05:47:21.730Z,18.90
2018-08-19T05:52:24.895Z,19.10
2018-08-19T05:57:29.570Z,19.20
2018-08-19T06:02:38.328Z,19.40
2018-08-19T06:07:41.478Z,19.50
2018-08-19T06:12:44.460Z,19.70
2018-08-19T06:17:47.539Z,20.10
2018-08-19T06:22:50.757Z,20.70
2018-08-19T06:27:56.042Z,22.30
2018-08-19T06:32:59.175Z,23.80
2018-08-19T06:38:02.334Z,24.50
2018-08-19T06:43:05.452Z,25.50
2018-08-19T06:48:08.557Z,26.20
2018-08-19T06:53:17.040Z,27.40
2018-08-19T06:58:20.146Z,27.30
2018-08-19T07:03:23.282Z,27.20
2018-08-19T07:08:26.353Z,27.40
2018-08-19T07:13:29.499Z,27.50
2018-08-19T07:18:32.714Z,28.10
2018-08-19T07:28:38.798Z,29.50
2018-08-19T07:33:42.010Z,28.70
2018-08-19T07:38:45.101Z,29.30
2018-08-19T07:43:48.182Z,30.20
2018-08-19T07:48:51.338Z,29.60
2018-08-19T07:53:54.566Z,30.00
2018-08-19T07:59:14.511Z,30.90
2018-08-19T08:04:20.037Z,30.60
2018-08-19T08:09:23.734Z,30.40
2018-08-19T08:14:28.269Z,31.60
2018-08-19T08:19:31.669Z,31.60
2018-08-19T08:24:35.060Z,31.30
2018-08-19T08:29:39.955Z,31.90
2018-08-19T08:34:43.122Z,31.90
2018-08-19T08:39:48.200Z,30.80
2018-08-19T08:44:51.362Z,31.60
2018-08-19T08:49:54.898Z,31.20
2018-08-19T08:54:59.785Z,30.50
2018-08-19T09:00:03.321Z,30.30
2018-08-19T09:05:09.897Z,29.80
2018-08-19T09:10:13.756Z,29.30
2018-08-19T09:15:17.051Z,28.90
2018-08-19T09:20:20.148Z,28.40
2018-08-19T09:25:23.255Z,28.40
2018-08-19T09:30:39.331Z,28.50
2018-08-19T09:35:43.453Z,28.60
2018-08-19T09:40:47.041Z,28.60
2018-08-19T09:45:50.117Z,28.40
2018-08-19T09:50:57.121Z,28.50
2018-08-19T09:56:05.632Z,28.40
2018-08-19T10:01:14.798Z,28.20
2018-08-19T10:06:19.404Z,28.40
2018-08-19T10:11:22.463Z,28.40
2018-08-19T10:16:37.196Z,28.50
2018-08-19T10:21:40.439Z,28.50
2018-08-19T10:26:43.999Z,28.50
2018-08-19T10:31:52.422Z,28.40
2018-08-19T10:36:56.290Z,28.50
2018-08-19T10:42:17.572Z,28.60
2018-08-19T10:47:21.342Z,28.60
2018-08-19T10:52:26.725Z,28.30
2018-08-19T10:57:29.813Z,28.20
2018-08-19T11:02:33.037Z,28.20
2018-08-19T11:07:36.196Z,28.30
2018-08-19T11:12:39.703Z,28.40
2018-08-19T11:17:42.833Z,28.30
2018-08-19T11:22:46.179Z,28.30
2018-08-19T11:27:49.299Z,28.30
2018-08-19T11:32:53.074Z,28.20
2018-08-19T11:37:56.111Z,28.20
2018-08-19T11:42:59.269Z,28.40
2018-08-19T11:48:02.434Z,28.40
2018-08-19T11:53:05.540Z,28.40
2018-08-19T11:58:08.845Z,28.50
2018-08-19T12:03:12.332Z,28.50
2018-08-19T12:08:16.391Z,28.50
2018-08-19T12:13:19.537Z,28.40
2018-08-19T12:18:23.021Z,28.40
2018-08-19T12:23:26.681Z,28.40
2018-08-19T12:28:30.409Z,28.40
2018-08-19T12:33:33.700Z,28.40
2018-08-19T12:38:36.824Z,28.50
2018-08-19T12:43:41.103Z,28.60
2018-08-19T12:48:44.268Z,28.70
2018-08-19T12:53:47.723Z,28.60
2018-08-19T12:58:51.048Z,28.70
2018-08-19T13:03:54.220Z,28.70
2018-08-19T13:08:57.464Z,28.70
2018-08-19T13:14:07.676Z,28.80
2018-08-19T13:19:12.321Z,28.90
2018-08-19T13:24:16.570Z,28.80
2018-08-19T13:29:19.783Z,28.90
2018-08-19T13:34:24.476Z,28.90
2018-08-19T13:39:39.184Z,29.00
2018-08-19T13:44:42.233Z,29.10
2018-08-19T13:49:45.408Z,29.00
2018-08-19T13:54:58.860Z,28.90
2018-08-19T14:00:01.964Z,29.00
2018-08-19T14:05:05.096Z,29.10
2018-08-19T14:10:09.861Z,29.30
2018-08-19T14:15:12.974Z,29.30
2018-08-19T14:20:17.219Z,29.40
2018-08-19T14:25:20.310Z,29.40
2018-08-19T14:30:23.679Z,29.40
2018-08-19T14:35:26.943Z,29.40
2018-08-19T14:40:30.332Z,29.60
2018-08-19T14:45:33.412Z,29.60
2018-08-19T14:50:42.093Z,29.50
2018-08-19T14:55:45.193Z,29.50
2018-08-19T15:00:48.467Z,29.50
2018-08-19T15:06:02.662Z,29.60
2018-08-19T15:11:06.288Z,29.60
2018-08-19T15:16:14.102Z,29.60
2018-08-19T15:21:17.314Z,29.60
2018-08-19T15:26:20.533Z,29.60
2018-08-19T15:31:27.790Z,29.60
2018-08-19T15:36:33.881Z,29.40
2018-08-19T15:41:37.241Z,29.40
2018-08-19T15:46:40.533Z,29.40
2018-08-19T15:51:43.780Z,29.30
2018-08-19T15:56:47.160Z,29.40
2018-08-19T16:01:51.284Z,29.40
2018-08-19T16:06:55.355Z,29.30
2018-08-19T16:11:58.467Z,29.30
2018-08-19T16:17:02.846Z,29.20
2018-08-19T16:22:06.215Z,29.10
2018-08-19T16:27:09.821Z,29.10
2018-08-19T16:32:14.131Z,29.10
2018-08-19T16:37:17.546Z,29.00
2018-08-19T16:42:20.843Z,28.90
2018-08-19T16:47:24.370Z,28.90
2018-08-19T16:52:28.007Z,28.70
2018-08-19T16:57:31.453Z,28.60
2018-08-19T17:02:35.356Z,28.60
2018-08-19T17:07:38.820Z,28.50
2018-08-19T17:12:41.868Z,28.40
2018-08-19T17:17:45.167Z,28.20
2018-08-19T17:22:48.954Z,28.10
2018-08-19T17:27:53.009Z,27.90
2018-08-19T17:33:08.432Z,27.80
2018-08-19T17:38:14.631Z,27.60
2018-08-19T17:43:17.735Z,27.40
2018-08-19T17:48:20.896Z,27.30
2018-08-19T17:53:24.533Z,27.10
2018-08-19T17:58:27.816Z,26.80
2018-08-19T18:03:31.312Z,26.70
2018-08-19T18:08:34.411Z,26.50
2018-08-19T18:13:38.439Z,26.30
2018-08-19T18:18:41.584Z,26.10
2018-08-19T18:23:49.645Z,25.80
2018-08-19T18:28:59.291Z,25.60
2018-08-19T18:34:03.187Z,25.40
2018-08-19T18:39:09.255Z,25.20
2018-08-19T18:44:13.134Z,25.00
2018-08-19T18:49:16.312Z,24.80
2018-08-19T18:54:32.785Z,24.60
2018-08-19T18:59:40.238Z,24.50
2018-08-19T19:04:43.326Z,24.30
2018-08-19T19:09:50.048Z,24.10
2018-08-19T19:14:53.855Z,24.00
2018-08-19T19:25:07.764Z,23.70
2018-08-19T19:30:10.923Z,23.60
2018-08-19T19:35:18.732Z,23.40
2018-08-19T19:40:21.830Z,23.30
2018-08-19T19:45:24.986Z,23.10
2018-08-19T19:50:29.557Z,23.00
2018-08-19T19:55:32.981Z,22.80
2018-08-19T20:00:52.564Z,22.70
2018-08-19T20:05:55.824Z,22.60
2018-08-19T20:10:59.913Z,22.40
2018-08-19T20:16:03.376Z,22.40
2018-08-19T20:21:12.622Z,22.30
2018-08-19T20:26:17.081Z,22.20
2018-08-19T20:31:21.695Z,22.00
2018-08-19T20:36:25.866Z,21.90
2018-08-19T20:41:30.632Z,21.80
2018-08-19T20:46:34.324Z,21.80
2018-08-19T20:51:37.739Z,21.60
2018-08-19T20:56:40.861Z,21.60
2018-08-19T21:01:45.979Z,21.50
2018-08-19T21:06:50.676Z,21.30
2018-08-19T21:11:54.129Z,21.20
2018-08-19T21:16:58.328Z,21.10
2018-08-19T21:22:01.525Z,21.00
2018-08-19T21:27:04.995Z,20.90
2018-08-19T21:32:09.513Z,20.90
2018-08-19T21:37:16.483Z,20.80
2018-08-19T21:42:19.761Z,20.70
2018-08-19T21:47:22.903Z,20.60
2018-08-19T21:52:26.037Z,20.50
2018-08-19T21:57:29.648Z,20.40
2018-08-19T22:02:39.205Z,20.40
2018-08-19T22:07:42.340Z,20.30
2018-08-19T22:12:48.922Z,20.20
2018-08-19T22:17:52.016Z,20.20
2018-08-19T22:22:55.559Z,20.00
2018-08-19T22:27:58.667Z,19.90
2018-08-19T22:33:01.743Z,19.90
2018-08-19T22:38:08.999Z,19.80
2018-08-19T22:43:12.060Z,19.70
2018-08-19T22:48:28.640Z,19.70
2018-08-19T22:53:32.227Z,19.60
2018-08-19T22:58:35.672Z,19.50
2018-08-19T23:03:38.734Z,19.50
2018-08-19T23:08:42.912Z,19.40
2018-08-19T23:13:57.678Z,19.40
2018-08-19T23:19:00.797Z,19.30
2018-08-19T23:24:04.072Z,19.30
2018-08-19T23:29:07.238Z,19.20
2018-08-19T23:34:10.472Z,19.10
2018-08-19T23:39:13.615Z,19.00
2018-08-19T23:44:16.655Z,18.90
2018-08-19T23:49:19.712Z,18.90
2018-08-19T23:54:22.807Z,18.80
2018-08-19T23:59:31.216Z,18.80
